createdAt,value
2018-08-03T00:00:18.777Z,2.70
2018-08-03T00:02:47.783Z,3.10
2018-08-03T00:05:16.665Z,2.90
2018-08-03T00:07:45.565Z,3.23
2018-08-03T00:10:14.526Z,3.03
2018-08-03T00:12:43.628Z,3.43
2018-08-03T00:15:12.648Z,2.83
2018-08-03T00:17:41.745Z,3.13
2018-08-03T00:20:10.520Z,2.90
2018-08-03T00:22:39.415Z,3.07
2018-08-03T00:25:08.986Z,3.00
2018-08-03T00:27:38.033Z,3.10
2018-08-03T00:30:07.476Z,2.80
2018-08-03T00:32:36.598Z,2.77
2018-08-03T00:35:06.307Z,3.37
2018-08-03T00:37:35.834Z,2.93
2018-08-03T00:40:05.236Z,2.87
2018-08-03T00:42:34.428Z,3.00
2018-08-03T00:45:03.621Z,2.93
2018-08-03T00:47:32.956Z,2.80
2018-08-03T00:50:02.074Z,3.00
2018-08-03T00:52:30.993Z,3.10
2018-08-03T00:55:00.133Z,3.13
2018-08-03T00:57:29.440Z,3.10
2018-08-03T00:59:58.304Z,2.90
2018-08-03T01:02:27.233Z,2.93
2018-08-03T01:04:56.163Z,2.80
2018-08-03T01:07:25.148Z,3.00
2018-08-03T01:09:54.186Z,3.07
2018-08-03T01:12:23.159Z,3.00
2018-08-03T01:14:52.065Z,2.60
2018-08-03T01:17:20.929Z,3.00
2018-08-03T01:19:49.831Z,3.30
2018-08-03T01:22:18.791Z,2.90
2018-08-03T01:24:47.715Z,2.60
2018-08-03T01:27:16.644Z,2.77
2018-08-03T01:29:46.406Z,3.57
2018-08-03T01:32:15.321Z,3.43
2018-08-03T01:34:44.289Z,3.07
2018-08-03T01:37:13.205Z,2.70
2018-08-03T01:39:42.208Z,3.70
2018-08-03T01:42:11.179Z,3.53
2018-08-03T01:44:40.205Z,3.00
2018-08-03T01:47:09.226Z,3.40
2018-08-03T01:49:38.193Z,2.90
2018-08-03T01:52:07.161Z,2.83
2018-08-03T01:54:36.109Z,3.40
2018-08-03T01:57:05.052Z,3.03
2018-08-03T01:59:34.011Z,2.97
2018-08-03T02:02:02.936Z,3.33
2018-08-03T02:04:31.889Z,3.10
2018-08-03T02:07:00.812Z,3.00
2018-08-03T02:09:29.724Z,3.23
2018-08-03T02:11:58.689Z,3.27
2018-08-03T02:14:27.580Z,3.33
2018-08-03T02:16:56.473Z,3.53
2018-08-03T02:19:25.384Z,3.37
2018-08-03T02:21:54.266Z,3.37
2018-08-03T02:24:23.172Z,3.20
2018-08-03T02:26:52.061Z,3.40
2018-08-03T02:29:20.964Z,3.47
2018-08-03T02:31:49.910Z,3.13
2018-08-03T02:34:18.826Z,3.70
2018-08-03T02:36:49.042Z,3.57
2018-08-03T02:39:17.925Z,3.30
2018-08-03T02:41:46.810Z,3.97
2018-08-03T02:44:15.712Z,3.30
2018-08-03T02:46:44.613Z,3.97
2018-08-03T02:49:13.502Z,3.97
2018-08-03T02:51:42.393Z,3.80
2018-08-03T02:54:11.340Z,3.77
2018-08-03T02:56:40.245Z,3.57
2018-08-03T02:59:09.242Z,3.70
2018-08-03T03:01:38.182Z,3.83
2018-08-03T03:04:07.213Z,3.27
2018-08-03T03:06:36.171Z,3.60
2018-08-03T03:09:06.689Z,3.63
2018-08-03T03:11:35.873Z,4.23
2018-08-03T03:14:05.132Z,4.40
2018-08-03T03:16:34.047Z,4.17
2018-08-03T03:19:02.914Z,3.90
2018-08-03T03:21:31.876Z,5.00
2018-08-03T03:24:00.800Z,4.17
2018-08-03T03:26:29.696Z,4.73
2018-08-03T03:28:58.673Z,5.67
2018-08-03T03:31:27.573Z,4.90
2018-08-03T03:33:56.209Z,4.80
2018-08-03T03:36:24.954Z,4.40
2018-08-03T03:38:53.849Z,4.47
2018-08-03T03:41:22.756Z,4.20
2018-08-03T03:43:51.837Z,3.87
2018-08-03T03:46:20.764Z,4.00
2018-08-03T03:48:49.655Z,4.37
2018-08-03T03:51:18.533Z,4.80
2018-08-03T03:53:47.408Z,4.40
2018-08-03T03:56:22.261Z,4.47
2018-08-03T03:58:51.349Z,4.50
2018-08-03T04:01:20.228Z,4.40
2018-08-03T04:03:49.194Z,4.50
2018-08-03T04:06:18.331Z,4.93
2018-08-03T04:08:47.219Z,4.73
2018-08-03T04:11:16.165Z,4.63
2018-08-03T04:13:45.175Z,4.50
2018-08-03T04:16:14.191Z,4.57
2018-08-03T04:18:43.174Z,4.30
2018-08-03T04:21:12.177Z,4.60
2018-08-03T04:23:41.241Z,4.40
2018-08-03T04:26:10.249Z,5.10
2018-08-03T04:28:39.461Z,4.93
2018-08-03T04:31:08.449Z,4.57
2018-08-03T04:33:37.484Z,5.20
2018-08-03T04:36:06.574Z,5.03
2018-08-03T04:38:35.578Z,6.00
2018-08-03T04:41:04.501Z,5.40
2018-08-03T04:43:33.437Z,4.73
2018-08-03T04:46:02.432Z,4.60
2018-08-03T04:48:31.442Z,5.07
2018-08-03T04:51:00.309Z,4.77
2018-08-03T04:53:29.209Z,5.47
2018-08-03T04:55:58.117Z,5.43
2018-08-03T04:58:26.996Z,4.83
2018-08-03T05:00:55.873Z,5.27
2018-08-03T05:03:24.755Z,4.73
2018-08-03T05:05:53.644Z,4.83
2018-08-03T05:08:22.553Z,5.57
2018-08-03T05:10:51.437Z,6.13
2018-08-03T05:13:20.337Z,5.07
2018-08-03T05:15:49.220Z,5.37
2018-08-03T05:18:18.128Z,5.50
2018-08-03T05:20:47.000Z,4.77
2018-08-03T05:23:15.885Z,5.40
2018-08-03T05:25:44.861Z,5.40
2018-08-03T05:28:13.789Z,4.97
2018-08-03T05:30:42.782Z,6.20
2018-08-03T05:33:11.885Z,5.87
2018-08-03T05:35:40.870Z,5.67
2018-08-03T05:38:10.139Z,5.33
2018-08-03T05:40:39.273Z,5.43
2018-08-03T05:43:08.238Z,4.87
2018-08-03T05:45:37.344Z,5.50
2018-08-03T05:48:06.254Z,5.10
2018-08-03T05:50:35.452Z,4.80
2018-08-03T05:53:04.370Z,5.23
2018-08-03T05:55:33.265Z,4.73
2018-08-03T05:58:02.215Z,4.80
2018-08-03T06:00:31.065Z,4.73
2018-08-03T06:02:59.909Z,4.67
2018-08-03T06:05:28.850Z,4.40
2018-08-03T06:07:57.786Z,5.03
2018-08-03T06:10:26.669Z,4.63
2018-08-03T06:12:55.553Z,4.30
2018-08-03T06:15:24.450Z,3.90
2018-08-03T06:17:53.389Z,4.00
2018-08-03T06:20:22.274Z,4.00
2018-08-03T06:22:51.133Z,4.60
2018-08-03T06:25:20.020Z,4.70
2018-08-03T06:27:48.908Z,4.07
2018-08-03T06:30:17.789Z,4.77
2018-08-03T06:32:46.664Z,4.13
2018-08-03T06:35:15.573Z,4.23
2018-08-03T06:37:44.457Z,4.07
2018-08-03T06:40:13.337Z,6.13
2018-08-03T06:42:42.100Z,4.47
2018-08-03T06:45:10.928Z,4.20
2018-08-03T06:47:39.984Z,4.03
2018-08-03T06:50:09.121Z,4.40
2018-08-03T06:52:38.137Z,4.00
2018-08-03T06:55:07.110Z,4.13
2018-08-03T06:57:36.232Z,4.17
2018-08-03T07:00:06.351Z,4.30
2018-08-03T07:02:35.448Z,4.17
2018-08-03T07:05:04.532Z,3.90
2018-08-03T07:07:33.401Z,3.87
2018-08-03T07:10:02.330Z,3.63
2018-08-03T07:12:31.232Z,3.47
2018-08-03T07:15:00.179Z,4.20
2018-08-03T07:17:28.976Z,3.60
2018-08-03T07:19:57.857Z,4.60
2018-08-03T07:22:26.716Z,3.77
2018-08-03T07:24:55.989Z,4.00
2018-08-03T07:27:25.023Z,4.17
2018-08-03T07:29:54.016Z,3.77
2018-08-03T07:32:22.913Z,3.80
2018-08-03T07:34:51.832Z,4.00
2018-08-03T07:37:20.717Z,3.77
2018-08-03T07:39:49.612Z,4.03
2018-08-03T07:42:18.494Z,4.03
2018-08-03T07:44:47.373Z,4.00
2018-08-03T07:47:16.331Z,3.77
2018-08-03T07:49:45.166Z,4.53
2018-08-03T07:52:14.140Z,3.83
2018-08-03T07:54:43.077Z,3.60
2018-08-03T07:57:12.050Z,4.17
2018-08-03T07:59:40.995Z,3.27
2018-08-03T08:02:09.886Z,3.33
2018-08-03T08:04:39.073Z,3.47
2018-08-03T08:07:08.017Z,3.40
2018-08-03T08:09:37.032Z,3.60
2018-08-03T08:12:06.022Z,3.70
2018-08-03T08:14:34.962Z,3.47
2018-08-03T08:17:03.933Z,3.67
2018-08-03T08:19:32.756Z,3.87
2018-08-03T08:22:01.647Z,3.50
2018-08-03T08:24:30.521Z,3.80
2018-08-03T08:26:59.547Z,3.40
2018-08-03T08:29:28.428Z,3.50
2018-08-03T08:31:57.448Z,3.20
2018-08-03T08:34:26.357Z,3.20
2018-08-03T08:36:55.329Z,3.30
2018-08-03T08:39:24.268Z,3.40
2018-08-03T08:41:53.277Z,3.30
2018-08-03T08:44:22.157Z,3.60
2018-08-03T08:46:51.044Z,3.37
2018-08-03T08:49:19.935Z,3.40
2018-08-03T08:51:48.856Z,3.50
2018-08-03T08:54:17.728Z,3.10
2018-08-03T08:56:46.652Z,3.43
2018-08-03T08:59:15.524Z,3.47
2018-08-03T09:01:44.396Z,3.30
2018-08-03T09:04:13.301Z,3.30
2018-08-03T09:06:42.346Z,3.40
2018-08-03T09:09:11.784Z,3.70
2018-08-03T09:11:40.728Z,2.87
2018-08-03T09:14:09.841Z,3.50
2018-08-03T09:16:38.810Z,3.80
2018-08-03T09:19:07.713Z,3.60
2018-08-03T09:21:36.756Z,3.20
2018-08-03T09:24:05.948Z,3.50
2018-08-03T09:26:35.075Z,3.20
2018-08-03T09:29:03.980Z,3.40
2018-08-03T09:31:32.944Z,3.37
2018-08-03T09:34:01.824Z,3.10
2018-08-03T09:36:30.756Z,3.17
2018-08-03T09:38:59.928Z,2.80
2018-08-03T09:41:28.753Z,3.20
2018-08-03T09:43:57.620Z,2.77
2018-08-03T09:46:26.503Z,2.97
2018-08-03T09:48:55.480Z,2.97
2018-08-03T09:51:24.420Z,3.07
2018-08-03T09:53:53.256Z,3.37
2018-08-03T09:56:22.161Z,3.20
2018-08-03T09:58:50.843Z,2.80
2018-08-03T10:01:19.653Z,3.27
2018-08-03T10:03:48.534Z,2.90
2018-08-03T10:06:17.410Z,3.30
2018-08-03T10:08:46.314Z,2.80
2018-08-03T10:11:15.287Z,3.07
2018-08-03T10:13:44.232Z,3.00
2018-08-03T10:16:13.267Z,3.07
2018-08-03T10:18:42.382Z,3.20
2018-08-03T10:21:11.365Z,3.37
2018-08-03T10:23:40.452Z,2.87
2018-08-03T10:26:09.352Z,3.27
2018-08-03T10:28:38.261Z,3.10
2018-08-03T10:31:07.477Z,3.10
2018-08-03T10:33:36.432Z,3.00
2018-08-03T10:36:05.343Z,2.87
2018-08-03T10:38:34.217Z,3.00
2018-08-03T10:41:03.137Z,3.03
2018-08-03T10:43:32.037Z,3.20
2018-08-03T10:46:00.857Z,3.00
2018-08-03T10:48:29.717Z,3.20
2018-08-03T10:50:58.673Z,2.90
2018-08-03T10:53:27.665Z,3.80
2018-08-03T10:55:56.520Z,3.17
2018-08-03T10:58:25.491Z,3.00
2018-08-03T11:00:54.318Z,3.70
2018-08-03T11:03:23.245Z,3.10
2018-08-03T11:05:52.220Z,3.37
2018-08-03T11:08:21.172Z,3.13
2018-08-03T11:10:50.095Z,3.23
2018-08-03T11:13:19.013Z,3.13
2018-08-03T11:15:47.986Z,3.30
2018-08-03T11:18:16.899Z,3.00
2018-08-03T11:20:45.804Z,2.90
2018-08-03T11:23:14.743Z,3.20
2018-08-03T11:25:43.739Z,3.30
2018-08-03T11:28:12.952Z,3.13
2018-08-03T11:30:41.895Z,2.93
2018-08-03T11:33:10.938Z,2.83
2018-08-03T11:35:39.848Z,3.80
2018-08-03T11:38:08.818Z,3.83
2018-08-03T11:40:37.929Z,3.50
2018-08-03T11:43:07.026Z,3.80
2018-08-03T11:45:36.112Z,3.67
2018-08-03T11:48:05.149Z,3.40
2018-08-03T11:50:34.020Z,4.23
2018-08-03T11:53:03.646Z,3.50
2018-08-03T11:55:32.543Z,3.90
2018-08-03T11:58:01.422Z,3.50
2018-08-03T12:00:30.382Z,3.87
2018-08-03T12:02:59.301Z,3.50
2018-08-03T12:05:28.165Z,3.50
2018-08-03T12:07:57.096Z,3.93
2018-08-03T12:10:25.999Z,3.20
2018-08-03T12:12:54.992Z,3.40
2018-08-03T12:15:23.928Z,3.67
2018-08-03T12:17:52.841Z,3.70
2018-08-03T12:20:21.713Z,3.70
2018-08-03T12:22:50.745Z,3.43
2018-08-03T12:25:19.644Z,3.33
2018-08-03T12:27:48.645Z,3.70
2018-08-03T12:30:17.536Z,3.97
2018-08-03T12:32:46.430Z,3.70
2018-08-03T12:35:15.495Z,3.87
2018-08-03T12:37:44.366Z,4.90
2018-08-03T12:40:13.389Z,3.33
2018-08-03T12:42:42.352Z,3.50
2018-08-03T12:45:11.277Z,3.50
2018-08-03T12:47:40.174Z,3.50
2018-08-03T12:50:13.526Z,4.27
2018-08-03T12:52:42.750Z,3.33
2018-08-03T12:55:11.604Z,3.77
2018-08-03T12:57:40.635Z,3.53
2018-08-03T13:00:09.646Z,3.27
2018-08-03T13:02:38.762Z,3.70
2018-08-03T13:05:07.754Z,3.97
2018-08-03T13:07:36.763Z,4.50
2018-08-03T13:10:05.950Z,3.40
2018-08-03T13:12:35.322Z,3.50
2018-08-03T13:15:05.098Z,3.53
2018-08-03T13:17:34.050Z,4.53
2018-08-03T13:20:02.945Z,4.00
2018-08-03T13:22:31.853Z,3.40
2018-08-03T13:25:00.710Z,3.67
2018-08-03T13:27:29.645Z,3.03
2018-08-03T13:29:58.455Z,3.00
2018-08-03T13:32:27.321Z,3.77
2018-08-03T13:34:56.221Z,4.50
2018-08-03T13:37:24.869Z,5.90
2018-08-03T13:39:53.732Z,4.27
2018-08-03T13:42:22.616Z,5.33
2018-08-03T13:44:51.489Z,3.03
2018-08-03T13:47:20.394Z,5.47
2018-08-03T13:49:49.601Z,7.40
2018-08-03T13:52:18.505Z,3.30
2018-08-03T13:54:48.082Z,3.33
2018-08-03T13:57:16.984Z,9.20
2018-08-03T13:59:45.878Z,2.87
2018-08-03T14:02:23.096Z,3.83
2018-08-03T14:04:52.330Z,10.33
2018-08-03T14:07:21.236Z,3.27
2018-08-03T14:09:50.113Z,15.10
2018-08-03T14:12:19.076Z,3.40
2018-08-03T14:14:47.877Z,4.63
2018-08-03T14:17:16.772Z,3.70
2018-08-03T14:19:45.630Z,10.13
2018-08-03T14:22:14.616Z,3.20
2018-08-03T14:24:43.465Z,3.30
2018-08-03T14:27:12.372Z,3.20
2018-08-03T14:29:41.294Z,3.67
2018-08-03T14:32:10.181Z,7.27
2018-08-03T14:34:39.072Z,11.80
2018-08-03T14:37:08.045Z,7.27
2018-08-03T14:39:37.069Z,11.20
2018-08-03T14:42:06.349Z,10.97
2018-08-03T14:44:35.334Z,9.80
2018-08-03T14:47:04.237Z,4.17
2018-08-03T14:49:33.130Z,3.67
2018-08-03T14:52:02.072Z,3.33
2018-08-03T14:54:30.965Z,4.00
2018-08-03T14:56:59.897Z,3.93
2018-08-03T14:59:28.776Z,8.53
2018-08-03T15:01:57.758Z,4.67
2018-08-03T15:04:26.614Z,8.73
2018-08-03T15:06:55.480Z,3.50
2018-08-03T15:09:24.369Z,4.23
2018-08-03T15:11:53.220Z,6.37
2018-08-03T15:14:22.108Z,4.33
2018-08-03T15:16:51.001Z,6.67
2018-08-03T15:19:19.973Z,7.60
2018-08-03T15:21:48.884Z,7.13
2018-08-03T15:24:17.835Z,8.00
2018-08-03T15:26:46.697Z,8.00
2018-08-03T15:29:15.722Z,6.13
2018-08-03T15:31:44.733Z,4.30
2018-08-03T15:34:13.649Z,6.63
2018-08-03T15:36:42.573Z,7.57
2018-08-03T15:39:11.783Z,7.03
2018-08-03T15:41:40.664Z,6.80
2018-08-03T15:44:09.600Z,7.53
2018-08-03T15:46:38.618Z,6.33
2018-08-03T15:49:07.615Z,7.40
2018-08-03T15:51:36.600Z,6.67
2018-08-03T15:54:05.489Z,6.40
2018-08-03T15:56:34.976Z,6.47
2018-08-03T15:59:03.916Z,6.07
2018-08-03T16:01:32.862Z,6.57
2018-08-03T16:04:01.739Z,6.37
2018-08-03T16:06:30.609Z,6.20
2018-08-03T16:08:59.518Z,6.07
2018-08-03T16:11:28.421Z,6.53
2018-08-03T16:13:58.249Z,5.90
2018-08-03T16:16:27.148Z,5.90
2018-08-03T16:18:55.867Z,6.20
2018-08-03T16:21:24.694Z,5.80
2018-08-03T16:23:53.582Z,6.17
2018-08-03T16:26:22.501Z,6.20
2018-08-03T16:28:51.408Z,5.77
2018-08-03T16:31:20.376Z,5.73
2018-08-03T16:33:49.242Z,6.60
2018-08-03T16:36:18.101Z,5.73
2018-08-03T16:38:46.996Z,5.20
2018-08-03T16:41:15.840Z,5.43
2018-08-03T16:43:45.699Z,5.70
2018-08-03T16:46:14.522Z,5.53
2018-08-03T16:48:43.465Z,5.30
2018-08-03T16:51:12.359Z,5.50
2018-08-03T16:53:41.294Z,4.60
2018-08-03T16:56:10.234Z,4.77
2018-08-03T16:58:39.282Z,5.43
2018-08-03T17:01:08.186Z,4.90
2018-08-03T17:03:37.089Z,5.67
2018-08-03T17:06:06.013Z,5.50
2018-08-03T17:08:35.033Z,5.10
2018-08-03T17:11:03.893Z,5.00
2018-08-03T17:13:32.747Z,5.37
2018-08-03T17:16:01.615Z,4.80
2018-08-03T17:18:30.457Z,5.03
2018-08-03T17:20:59.355Z,5.60
2018-08-03T17:23:28.337Z,5.17
2018-08-03T17:25:57.153Z,4.97
2018-08-03T17:28:26.016Z,5.00
2018-08-03T17:30:54.912Z,5.00
2018-08-03T17:33:23.842Z,4.47
2018-08-03T17:35:52.768Z,5.20
2018-08-03T17:38:21.609Z,4.77
2018-08-03T17:40:50.546Z,4.17
2018-08-03T17:43:19.441Z,4.90
2018-08-03T17:45:48.367Z,5.03
2018-08-03T17:48:17.240Z,4.40
2018-08-03T17:50:46.145Z,4.70
2018-08-03T17:53:14.993Z,3.90
2018-08-03T17:55:43.932Z,4.73
2018-08-03T17:58:13.522Z,4.83
2018-08-03T18:00:42.438Z,4.53
2018-08-03T18:03:11.374Z,4.73
2018-08-03T18:05:40.325Z,4.63
2018-08-03T18:08:09.215Z,4.60
2018-08-03T18:10:39.616Z,4.60
2018-08-03T18:13:08.489Z,4.63
2018-08-03T18:15:37.620Z,4.77
2018-08-03T18:18:06.616Z,4.40
2018-08-03T18:20:35.542Z,4.30
2018-08-03T18:23:04.509Z,4.37
2018-08-03T18:25:34.097Z,4.20
2018-08-03T18:28:02.964Z,4.63
2018-08-03T18:30:31.800Z,3.93
2018-08-03T18:33:00.706Z,4.93
2018-08-03T18:35:29.521Z,4.27
2018-08-03T18:37:58.396Z,4.60
2018-08-03T18:40:27.300Z,4.00
2018-08-03T18:42:56.156Z,3.90
2018-08-03T18:45:25.177Z,3.57
2018-08-03T18:47:54.134Z,3.47
2018-08-03T18:50:23.005Z,4.37
2018-08-03T18:52:52.006Z,3.70
2018-08-03T18:55:20.897Z,4.23
2018-08-03T18:57:49.918Z,4.10
2018-08-03T19:00:18.927Z,4.30
2018-08-03T19:02:47.833Z,4.07
2018-08-03T19:05:16.987Z,4.50
2018-08-03T19:07:46.118Z,4.50
2018-08-03T19:10:15.104Z,4.20
2018-08-03T19:12:44.049Z,4.27
2018-08-03T19:15:12.993Z,4.30
2018-08-03T19:17:42.148Z,3.60
2018-08-03T19:20:11.020Z,3.37
2018-08-03T19:22:39.922Z,3.90
2018-08-03T19:25:09.815Z,3.63
2018-08-03T19:27:38.908Z,4.03
2018-08-03T19:30:07.855Z,3.70
2018-08-03T19:32:36.801Z,4.00
2018-08-03T19:35:05.783Z,3.37
2018-08-03T19:37:34.724Z,3.53
2018-08-03T19:40:03.588Z,3.47
2018-08-03T19:42:32.443Z,3.77
2018-08-03T19:45:01.366Z,3.80
2018-08-03T19:47:30.878Z,3.93
2018-08-03T19:50:00.569Z,3.60
2018-08-03T19:52:29.488Z,3.90
2018-08-03T19:54:58.326Z,4.00
2018-08-03T19:57:27.228Z,3.97
2018-08-03T19:59:56.097Z,3.40
2018-08-03T20:02:24.965Z,3.70
2018-08-03T20:04:53.866Z,3.37
2018-08-03T20:07:22.707Z,3.63
2018-08-03T20:09:51.577Z,3.63
2018-08-03T20:12:20.501Z,4.30
2018-08-03T20:14:49.374Z,3.90
2018-08-03T20:17:18.230Z,3.30
2018-08-03T20:19:47.087Z,3.23
2018-08-03T20:22:17.650Z,3.17
2018-08-03T20:24:46.710Z,2.97
2018-08-03T20:27:16.081Z,3.00
2018-08-03T20:29:45.177Z,3.30
2018-08-03T20:32:14.300Z,2.97
2018-08-03T20:34:43.199Z,2.80
2018-08-03T20:37:12.076Z,2.90
2018-08-03T20:39:41.011Z,4.33
2018-08-03T20:42:09.931Z,3.17
2018-08-03T20:44:38.906Z,3.17
2018-08-03T20:47:08.829Z,3.20
2018-08-03T20:49:37.549Z,3.23
2018-08-03T20:52:06.456Z,2.47
2018-08-03T20:54:35.225Z,3.00
2018-08-03T20:57:04.111Z,2.80
2018-08-03T20:59:33.004Z,2.53
2018-08-03T21:02:01.901Z,3.10
2018-08-03T21:04:30.843Z,2.70
2018-08-03T21:06:59.684Z,3.27
2018-08-03T21:09:28.588Z,2.70
2018-08-03T21:11:57.444Z,2.90
2018-08-03T21:14:26.332Z,3.10
2018-08-03T21:16:55.214Z,2.60
2018-08-03T21:19:24.133Z,3.10
2018-08-03T21:21:53.042Z,2.60
2018-08-03T21:24:21.904Z,2.83
2018-08-03T21:26:50.793Z,2.93
2018-08-03T21:29:19.728Z,3.20
2018-08-03T21:31:48.592Z,3.07
2018-08-03T21:34:17.467Z,3.03
2018-08-03T21:36:46.380Z,2.33
2018-08-03T21:39:15.269Z,2.30
2018-08-03T21:41:44.153Z,2.83
2018-08-03T21:44:13.263Z,3.40
2018-08-03T21:46:42.140Z,2.83
2018-08-03T21:49:11.087Z,2.47
2018-08-03T21:51:39.975Z,3.07
2018-08-03T21:54:08.925Z,2.57
2018-08-03T21:56:37.800Z,3.40
2018-08-03T21:59:06.718Z,2.70
2018-08-03T22:01:36.663Z,4.77
2018-08-03T22:04:05.577Z,2.50
2018-08-03T22:06:34.489Z,2.00
2018-08-03T22:09:03.939Z,2.70
2018-08-03T22:11:34.021Z,2.20
2018-08-03T22:14:03.844Z,2.27
2018-08-03T22:16:32.728Z,2.27
2018-08-03T22:19:01.708Z,2.90
2018-08-03T22:21:30.475Z,2.57
2018-08-03T22:23:59.368Z,2.43
2018-08-03T22:26:28.243Z,2.53
2018-08-03T22:28:57.156Z,2.60
2018-08-03T22:31:26.038Z,2.70
2018-08-03T22:33:54.952Z,2.00
2018-08-03T22:36:23.856Z,2.70
2018-08-03T22:38:52.852Z,3.00
2018-08-03T22:41:21.760Z,2.87
2018-08-03T22:43:50.638Z,4.03
2018-08-03T22:46:19.501Z,4.00
2018-08-03T22:48:48.408Z,3.00
2018-08-03T22:51:17.289Z,2.63
2018-08-03T22:53:46.180Z,2.30
2018-08-03T22:56:15.069Z,1.93
2018-08-03T22:58:43.969Z,2.27
2018-08-03T23:01:12.873Z,2.03
2018-08-03T23:03:41.860Z,1.93
2018-08-03T23:06:10.752Z,2.00
2018-08-03T23:08:39.659Z,2.10
2018-08-03T23:11:08.624Z,1.90
2018-08-03T23:13:37.611Z,2.57
2018-08-03T23:16:06.572Z,1.93
2018-08-03T23:18:35.455Z,1.90
2018-08-03T23:21:04.369Z,1.80
2018-08-03T23:23:33.179Z,2.00
2018-08-03T23:26:02.049Z,2.10
2018-08-03T23:28:30.995Z,1.80
2018-08-03T23:30:59.840Z,2.23
2018-08-03T23:33:28.709Z,2.17
2018-08-03T23:35:57.589Z,1.80
2018-08-03T23:38:26.507Z,2.07
2018-08-03T23:40:55.368Z,2.27
2018-08-03T23:43:24.225Z,1.90
2018-08-03T23:45:53.073Z,2.07
2018-08-03T23:48:21.936Z,2.00
2018-08-03T23:50:50.865Z,2.27
2018-08-03T23:53:19.724Z,2.07
2018-08-03T23:55:48.592Z,1.73
2018-08-03T23:58:17.482Z,1.93
